LFSB METAR :   2017/05/23 18:30 LFSB 231830Z 29007KT 9999 FEW066TCU SCT073 23/13 Q1020 NOSIG

TAF  2017/05/23 18:21 TAF LFSB 231700Z 2318/2418 29012KT 9999 FEW055TCU BKN100 BECMG 2319/2321 VRB04KT CAVOK BECMG 2405/2407 33008KT